createdAt,value
2019-01-19T00:05:19.241Z,57.13
2019-01-19T00:10:30.533Z,55.31
2019-01-19T00:15:41.020Z,54.70
2019-01-19T00:20:59.244Z,54.99
2019-01-19T00:26:17.604Z,55.86
2019-01-19T00:31:35.914Z,56.80
2019-01-19T00:36:45.452Z,56.34
2019-01-19T00:42:07.571Z,55.82
2019-01-19T00:47:26.399Z,55.70
2019-01-19T00:52:44.158Z,55.22
2019-01-19T00:58:09.680Z,55.54
2019-01-19T01:03:23.566Z,55.44
2019-01-19T01:08:42.422Z,54.83
2019-01-19T01:14:07.749Z,54.74
2019-01-19T01:19:20.687Z,55.67
2019-01-19T01:24:43.679Z,55.55
2019-01-19T01:30:20.707Z,53.27
2019-01-19T01:35:47.681Z,54.87
2019-01-19T01:41:02.464Z,54.52
2019-01-19T01:46:12.800Z,53.48
2019-01-19T01:51:28.786Z,52.75
2019-01-19T01:56:36.032Z,54.71
2019-01-19T02:01:46.486Z,54.15
2019-01-19T02:06:57.732Z,53.03
2019-01-19T02:12:32.317Z,53.79
2019-01-19T02:17:49.612Z,54.11
2019-01-19T02:23:07.109Z,54.37
2019-01-19T02:28:27.642Z,55.21
2019-01-19T02:33:38.644Z,54.24
2019-01-19T02:38:49.037Z,52.82
2019-01-19T02:44:17.849Z,53.12
2019-01-19T02:49:33.979Z,53.78
2019-01-19T02:54:55.349Z,52.80
2019-01-19T03:00:25.618Z,52.54
2019-01-19T03:05:36.522Z,51.68
2019-01-19T03:11:06.826Z,51.37
2019-01-19T03:16:28.548Z,51.47
2019-01-19T03:21:46.709Z,51.47
2019-01-19T03:26:56.900Z,53.21
2019-01-19T03:32:10.347Z,54.26
2019-01-19T03:37:40.006Z,54.61
2019-01-19T03:42:53.534Z,54.48
2019-01-19T03:48:08.954Z,54.82
2019-01-19T03:53:24.956Z,55.04
2019-01-19T03:58:51.560Z,54.21
2019-01-19T04:04:18.217Z,52.74
2019-01-19T04:09:27.750Z,52.25
2019-01-19T04:15:02.345Z,53.26
2019-01-19T04:20:22.066Z,53.58
2019-01-19T04:25:34.675Z,52.75
2019-01-19T04:30:42.659Z,53.04
2019-01-19T04:35:51.372Z,54.85
2019-01-19T04:41:00.648Z,53.63
2019-01-19T04:46:09.690Z,53.19
2019-01-19T04:51:18.123Z,52.91
2019-01-19T04:56:28.014Z,52.50
2019-01-19T05:01:40.815Z,52.49
2019-01-19T05:06:48.047Z,52.25
2019-01-19T05:11:55.870Z,51.65
2019-01-19T05:17:03.954Z,51.42
2019-01-19T05:22:12.447Z,51.22
2019-01-19T05:27:20.364Z,51.09
2019-01-19T05:32:30.072Z,50.93
2019-01-19T05:37:38.970Z,50.94
2019-01-19T05:42:55.953Z,51.28
2019-01-19T05:48:01.841Z,51.66
2019-01-19T05:53:10.490Z,51.71
2019-01-19T05:58:20.294Z,51.38
2019-01-19T06:03:31.124Z,51.76
2019-01-19T06:08:39.629Z,52.26
2019-01-19T06:13:46.667Z,51.90
2019-01-19T06:18:53.185Z,52.73
2019-01-19T06:23:59.582Z,52.64
2019-01-19T06:29:07.565Z,52.43
2019-01-19T06:34:15.185Z,52.07
2019-01-19T06:39:22.254Z,52.42
2019-01-19T06:44:28.913Z,52.32
2019-01-19T06:49:35.452Z,53.25
2019-01-19T06:54:43.323Z,54.91
2019-01-19T06:59:51.253Z,55.27
2019-01-19T07:05:00.510Z,55.39
2019-01-19T07:10:11.180Z,56.17
2019-01-19T07:15:20.398Z,55.70
2019-01-19T07:20:31.170Z,55.47
2019-01-19T07:25:41.330Z,55.54
2019-01-19T07:30:48.776Z,55.81
2019-01-19T07:35:57.057Z,55.61
2019-01-19T07:41:05.210Z,55.90
2019-01-19T07:46:13.219Z,56.07
2019-01-19T07:51:21.873Z,56.51
2019-01-19T07:56:30.127Z,56.45
2019-01-19T08:01:41.868Z,56.85
2019-01-19T08:06:49.325Z,56.87
2019-01-19T08:11:57.503Z,57.56
2019-01-19T08:17:09.488Z,56.98
2019-01-19T08:22:17.681Z,57.01
2019-01-19T08:27:27.136Z,56.71
2019-01-19T08:32:35.741Z,57.09
2019-01-19T08:37:43.815Z,56.41
2019-01-19T08:42:52.871Z,56.56
2019-01-19T08:48:01.470Z,56.55
2019-01-19T08:53:09.356Z,56.11
2019-01-19T08:58:17.369Z,56.55
2019-01-19T09:03:34.571Z,56.88
2019-01-19T09:08:51.491Z,55.27
2019-01-19T09:14:00.959Z,54.25
2019-01-19T09:19:08.860Z,53.49
2019-01-19T09:24:18.172Z,52.65
2019-01-19T09:29:26.583Z,51.82
2019-01-19T09:34:36.553Z,50.86
2019-01-19T09:39:44.851Z,51.59
2019-01-19T09:44:53.039Z,51.56
2019-01-19T09:50:01.468Z,50.57
2019-01-19T09:55:11.448Z,49.81
2019-01-19T10:00:22.112Z,49.72
2019-01-19T10:05:29.956Z,49.36
2019-01-19T10:10:37.314Z,49.53
2019-01-19T10:15:45.559Z,49.38
2019-01-19T10:20:53.161Z,48.60
2019-01-19T10:26:01.540Z,48.26
2019-01-19T10:31:09.880Z,48.47
2019-01-19T10:36:21.490Z,46.93
2019-01-19T10:41:31.340Z,47.83
2019-01-19T10:46:42.750Z,47.56
2019-01-19T10:51:59.341Z,48.51
2019-01-19T10:57:06.693Z,49.66
2019-01-19T11:02:13.909Z,48.08
2019-01-19T11:07:22.480Z,46.63
2019-01-19T11:12:30.944Z,46.50
2019-01-19T11:17:39.072Z,46.67
2019-01-19T11:22:49.455Z,46.46
2019-01-19T11:27:57.078Z,44.53
2019-01-19T11:33:04.232Z,45.03
2019-01-19T11:38:19.897Z,44.42
2019-01-19T11:43:21.458Z,43.44
2019-01-19T11:48:29.594Z,43.62
2019-01-19T11:53:37.001Z,41.89
2019-01-19T11:58:43.452Z,42.11
2019-01-19T12:03:52.948Z,42.50
2019-01-19T12:09:00.779Z,43.88
2019-01-19T12:14:09.176Z,43.31
2019-01-19T12:19:16.208Z,44.09
2019-01-19T12:24:22.790Z,43.53
2019-01-19T12:29:36.730Z,42.84
2019-01-19T12:34:44.536Z,43.80
2019-01-19T12:39:52.866Z,43.38
2019-01-19T12:45:00.821Z,43.34
2019-01-19T12:50:11.581Z,42.50
2019-01-19T12:55:22.474Z,43.36
2019-01-19T13:00:30.699Z,42.80
2019-01-19T13:05:45.732Z,42.55
2019-01-19T13:11:05.215Z,41.58
2019-01-19T13:16:48.431Z,41.40
2019-01-19T13:22:03.453Z,41.74
2019-01-19T13:27:16.927Z,40.53
2019-01-19T13:32:55.046Z,40.20
2019-01-19T13:38:12.618Z,40.23
2019-01-19T13:43:54.663Z,40.56
2019-01-19T13:49:08.998Z,40.55
2019-01-19T13:54:33.816Z,40.23
2019-01-19T13:59:53.975Z,40.51
2019-01-19T14:05:11.676Z,41.91
2019-01-19T14:10:41.856Z,43.93
2019-01-19T14:15:53.945Z,43.20
2019-01-19T14:21:31.257Z,43.02
2019-01-19T14:26:57.970Z,43.57
2019-01-19T14:32:25.262Z,43.94
2019-01-19T14:38:04.869Z,44.44
2019-01-19T14:43:34.466Z,45.24
2019-01-19T14:49:01.078Z,45.71
2019-01-19T14:54:42.244Z,46.08
2019-01-19T15:00:13.314Z,45.55
2019-01-19T15:05:31.809Z,45.62
2019-01-19T15:10:53.220Z,45.97
2019-01-19T15:16:04.206Z,47.46
2019-01-19T15:21:19.800Z,47.62
2019-01-19T15:26:40.830Z,47.96
2019-01-19T15:31:55.249Z,48.14
2019-01-19T15:37:14.245Z,47.59
2019-01-19T15:42:35.258Z,47.69
2019-01-19T15:47:44.641Z,48.19
2019-01-19T15:53:15.548Z,48.14
2019-01-19T15:58:43.881Z,48.28
2019-01-19T16:03:55.609Z,48.73
2019-01-19T16:09:07.459Z,48.95
2019-01-19T16:14:42.115Z,48.61
2019-01-19T16:20:03.255Z,48.38
2019-01-19T16:25:27.319Z,48.63
2019-01-19T16:31:02.472Z,48.91
2019-01-19T16:36:28.112Z,48.80
2019-01-19T16:41:49.976Z,49.30
2019-01-19T16:47:21.264Z,49.07
2019-01-19T16:52:48.925Z,49.18
2019-01-19T16:58:03.821Z,49.58
2019-01-19T17:03:24.877Z,49.41
2019-01-19T17:08:40.326Z,49.24
2019-01-19T17:13:58.029Z,48.67
2019-01-19T17:19:28.662Z,48.92
2019-01-19T17:25:02.260Z,49.15
2019-01-19T17:30:14.300Z,49.24
2019-01-19T17:35:39.742Z,49.17
2019-01-19T17:41:04.808Z,49.02
2019-01-19T17:46:17.201Z,49.36
2019-01-19T17:51:42.549Z,49.43
2019-01-19T17:56:57.337Z,49.22
2019-01-19T18:02:16.565Z,49.28
2019-01-19T18:07:42.434Z,49.11
2019-01-19T18:12:52.140Z,49.14
2019-01-19T18:18:11.077Z,48.98
2019-01-19T18:23:45.041Z,48.77
2019-01-19T18:29:09.400Z,49.44
2019-01-19T18:34:32.425Z,49.25
2019-01-19T18:39:54.836Z,49.80
2019-01-19T18:45:04.696Z,49.73
2019-01-19T18:50:18.430Z,49.29
2019-01-19T18:55:36.342Z,49.29
2019-01-19T19:00:50.833Z,49.60
2019-01-19T19:06:21.358Z,49.60
2019-01-19T19:11:35.744Z,49.49
2019-01-19T19:17:00.427Z,49.82
2019-01-19T19:22:29.637Z,49.69
2019-01-19T19:27:48.000Z,49.81
2019-01-19T19:33:08.877Z,49.88
2019-01-19T19:38:41.353Z,49.64
2019-01-19T19:44:08.019Z,49.82
2019-01-19T19:49:26.060Z,50.11
2019-01-19T19:54:33.152Z,50.59
2019-01-19T19:59:39.146Z,50.48
2019-01-19T20:04:45.239Z,50.88
2019-01-19T20:09:51.196Z,50.69
2019-01-19T20:14:59.548Z,50.54
2019-01-19T20:20:09.208Z,50.43
2019-01-19T20:25:15.235Z,50.80
2019-01-19T20:30:21.556Z,50.71
2019-01-19T20:35:27.449Z,50.79
2019-01-19T20:40:33.333Z,50.79
2019-01-19T20:45:39.468Z,50.74
2019-01-19T20:50:45.853Z,50.91
2019-01-19T20:55:52.039Z,51.08
2019-01-19T21:00:58.285Z,51.25
2019-01-19T21:06:05.253Z,51.06
2019-01-19T21:11:13.434Z,51.17
2019-01-19T21:16:19.463Z,50.94
2019-01-19T21:21:25.850Z,50.86
2019-01-19T21:26:32.369Z,51.21
2019-01-19T21:31:38.153Z,51.12
2019-01-19T21:36:44.785Z,51.22
2019-01-19T21:41:50.715Z,51.22
2019-01-19T21:46:57.629Z,51.38
2019-01-19T21:52:04.151Z,51.30
2019-01-19T21:57:10.436Z,51.38
2019-01-19T22:02:16.471Z,51.43
2019-01-19T22:07:22.619Z,51.41
2019-01-19T22:12:28.723Z,51.61
2019-01-19T22:17:39.450Z,51.85
2019-01-19T22:22:42.397Z,51.80
2019-01-19T22:27:49.102Z,51.70
2019-01-19T22:32:55.752Z,51.79
2019-01-19T22:38:01.553Z,51.74
2019-01-19T22:43:07.871Z,51.83
2019-01-19T22:48:13.665Z,51.86
2019-01-19T22:53:21.037Z,51.89
2019-01-19T22:58:27.507Z,51.88
2019-01-19T23:03:34.052Z,51.92
2019-01-19T23:08:42.017Z,52.13
2019-01-19T23:13:48.835Z,52.42
2019-01-19T23:18:55.087Z,52.07
2019-01-19T23:24:01.527Z,52.40
2019-01-19T23:29:07.098Z,52.25
2019-01-19T23:34:12.734Z,52.40
2019-01-19T23:39:19.571Z,52.19
2019-01-19T23:44:25.473Z,52.28
2019-01-19T23:49:32.437Z,52.21
2019-01-19T23:54:39.513Z,52.15
2019-01-19T23:59:47.314Z,52.06
